createdAt,value
2019-03-06T00:00:24.897Z,2.70
2019-03-06T00:01:24.971Z,2.73
2019-03-06T00:02:24.902Z,2.77
2019-03-06T00:03:24.975Z,2.81
2019-03-06T00:04:24.906Z,2.80
2019-03-06T00:05:24.975Z,2.80
2019-03-06T00:06:24.976Z,2.81
2019-03-06T00:07:24.902Z,2.85
2019-03-06T00:08:24.977Z,2.96
2019-03-06T00:09:24.911Z,2.96
2019-03-06T00:10:24.929Z,2.96
2019-03-06T00:11:24.923Z,3.02
2019-03-06T00:12:24.917Z,3.02
2019-03-06T00:13:25.009Z,3.07
2019-03-06T00:14:24.932Z,3.10
2019-03-06T00:15:24.919Z,3.13
2019-03-06T00:16:24.981Z,3.13
2019-03-06T00:17:24.924Z,3.14
2019-03-06T00:18:24.993Z,3.16
2019-03-06T00:19:24.934Z,3.14
2019-03-06T00:20:24.986Z,3.12
2019-03-06T00:21:24.915Z,3.13
2019-03-06T00:22:24.988Z,3.13
2019-03-06T00:23:24.916Z,3.16
2019-03-06T00:24:24.996Z,3.13
2019-03-06T00:25:24.984Z,3.10
2019-03-06T00:26:24.928Z,3.06
2019-03-06T00:27:24.992Z,3.05
2019-03-06T00:28:24.990Z,3.07
2019-03-06T00:29:24.938Z,3.09
2019-03-06T00:30:25.025Z,3.09
2019-03-06T00:31:25.011Z,3.07
2019-03-06T00:32:25.012Z,3.10
2019-03-06T00:33:24.947Z,3.13
2019-03-06T00:34:25.017Z,3.12
2019-03-06T00:35:24.968Z,3.06
2019-03-06T00:36:25.019Z,3.05
2019-03-06T00:37:24.965Z,3.03
2019-03-06T00:38:24.950Z,2.99
2019-03-06T00:39:24.954Z,2.96
2019-03-06T00:40:24.988Z,2.98
2019-03-06T00:41:24.944Z,2.96
2019-03-06T00:42:24.931Z,2.98
2019-03-06T00:43:24.882Z,2.99
2019-03-06T00:44:24.878Z,3.02
2019-03-06T00:45:24.945Z,2.99
2019-03-06T00:46:24.915Z,2.98
2019-03-06T00:47:25.010Z,2.96
2019-03-06T00:48:24.908Z,2.92
2019-03-06T00:49:24.917Z,2.88
2019-03-06T00:50:25.021Z,2.90
2019-03-06T00:51:25.018Z,2.90
2019-03-06T00:52:25.024Z,2.88
2019-03-06T00:53:24.949Z,2.87
2019-03-06T00:54:25.020Z,2.87
2019-03-06T00:55:24.952Z,2.87
2019-03-06T00:56:24.949Z,2.90
2019-03-06T00:57:25.023Z,2.90
2019-03-06T00:58:25.130Z,2.91
2019-03-06T00:59:24.962Z,2.92
2019-03-06T01:00:25.017Z,2.90
2019-03-06T01:01:24.939Z,2.88
2019-03-06T01:02:24.998Z,2.91
2019-03-06T01:03:25.009Z,2.92
2019-03-06T01:04:25.002Z,2.96
2019-03-06T01:05:24.941Z,2.99
2019-03-06T01:06:25.016Z,2.99
2019-03-06T01:07:24.962Z,2.96
2019-03-06T01:08:24.905Z,2.96
2019-03-06T01:09:24.915Z,2.96
2019-03-06T01:10:25.036Z,2.95
2019-03-06T01:11:25.033Z,2.94
2019-03-06T01:12:24.962Z,2.95
2019-03-06T01:13:25.044Z,2.94
2019-03-06T01:14:24.976Z,2.91
2019-03-06T01:15:25.031Z,2.91
2019-03-06T01:16:25.138Z,2.99
2019-03-06T01:17:24.922Z,3.03
2019-03-06T01:18:25.040Z,3.05
2019-03-06T01:19:25.005Z,3.07
2019-03-06T01:20:24.985Z,3.10
2019-03-06T01:21:25.032Z,3.13
2019-03-06T01:22:25.040Z,3.13
2019-03-06T01:23:24.990Z,3.10
2019-03-06T01:24:25.041Z,3.10
2019-03-06T01:25:25.050Z,3.07
2019-03-06T01:26:25.052Z,3.06
2019-03-06T01:27:24.986Z,3.07
2019-03-06T01:28:24.973Z,3.12
2019-03-06T01:29:25.161Z,3.14
2019-03-06T01:30:24.987Z,3.20
2019-03-06T01:31:25.056Z,3.22
2019-03-06T01:32:24.959Z,3.21
2019-03-06T01:33:24.988Z,3.17
2019-03-06T01:34:24.976Z,3.16
2019-03-06T01:35:25.003Z,3.16
2019-03-06T01:36:24.995Z,3.17
2019-03-06T01:37:25.052Z,3.16
2019-03-06T01:38:24.981Z,3.14
2019-03-06T01:39:24.990Z,3.13
2019-03-06T01:40:25.043Z,3.12
2019-03-06T01:41:24.969Z,3.09
2019-03-06T01:42:25.046Z,3.09
2019-03-06T01:43:24.975Z,3.09
2019-03-06T01:44:25.057Z,3.07
2019-03-06T01:45:24.977Z,3.07
2019-03-06T01:46:25.047Z,3.05
2019-03-06T01:47:24.982Z,3.03
2019-03-06T01:48:25.046Z,3.03
2019-03-06T01:49:25.050Z,3.03
2019-03-06T01:50:25.059Z,3.02
2019-03-06T01:52:25.071Z,2.94
2019-03-06T01:53:24.992Z,2.90
2019-03-06T01:54:25.068Z,2.90
2019-03-06T01:55:24.994Z,2.90
2019-03-06T01:56:25.067Z,2.88
2019-03-06T01:57:25.080Z,2.85
2019-03-06T01:58:25.005Z,2.83
2019-03-06T01:59:25.068Z,2.81
2019-03-06T02:00:24.996Z,2.80
2019-03-06T02:01:25.064Z,2.77
2019-03-06T02:02:24.994Z,2.72
2019-03-06T02:03:25.057Z,2.69
2019-03-06T02:04:25.060Z,2.66
2019-03-06T02:05:24.989Z,2.62
2019-03-06T02:06:25.060Z,2.59
2019-03-06T02:07:25.004Z,2.58
2019-03-06T02:08:24.996Z,2.57
2019-03-06T02:09:25.070Z,2.55
2019-03-06T02:10:25.075Z,2.54
2019-03-06T02:11:24.992Z,2.52
2019-03-06T02:12:25.066Z,2.50
2019-03-06T02:13:25.002Z,2.51
2019-03-06T02:14:24.995Z,2.50
2019-03-06T02:15:24.960Z,2.46
2019-03-06T02:16:25.074Z,2.47
2019-03-06T02:17:24.996Z,2.47
2019-03-06T02:18:25.082Z,2.51
2019-03-06T02:19:24.999Z,2.51
2019-03-06T02:20:25.087Z,2.54
2019-03-06T02:21:25.027Z,2.52
2019-03-06T02:22:24.972Z,2.50
2019-03-06T02:23:25.091Z,2.51
2019-03-06T02:24:25.014Z,2.47
2019-03-06T02:25:25.075Z,2.51
2019-03-06T02:26:25.084Z,2.52
2019-03-06T02:27:25.150Z,2.50
2019-03-06T02:28:25.021Z,2.52
2019-03-06T02:29:25.087Z,2.54
2019-03-06T02:30:25.085Z,2.55
2019-03-06T02:31:25.017Z,2.55
2019-03-06T02:32:25.020Z,2.61
2019-03-06T02:33:25.103Z,2.63
2019-03-06T02:34:25.006Z,2.68
2019-03-06T02:35:25.107Z,2.69
2019-03-06T02:36:25.098Z,2.72
2019-03-06T02:37:25.023Z,2.73
2019-03-06T02:38:25.041Z,2.72
2019-03-06T02:39:25.096Z,2.74
2019-03-06T02:40:25.016Z,2.76
2019-03-06T02:41:25.111Z,2.77
2019-03-06T02:42:25.132Z,2.76
2019-03-06T02:43:25.019Z,2.76
2019-03-06T02:44:25.089Z,2.76
2019-03-06T02:45:25.094Z,2.74
2019-03-06T02:46:25.029Z,2.73
2019-03-06T02:47:25.091Z,2.72
2019-03-06T02:48:25.022Z,2.72
2019-03-06T02:49:25.100Z,2.70
2019-03-06T02:50:25.034Z,2.70
2019-03-06T02:51:25.109Z,2.72
2019-03-06T02:52:25.044Z,2.69
2019-03-06T02:53:25.059Z,2.69
2019-03-06T02:54:25.128Z,2.65
2019-03-06T02:55:25.036Z,2.65
2019-03-06T02:56:25.046Z,2.65
2019-03-06T02:57:25.036Z,2.65
2019-03-06T02:58:25.114Z,2.62
2019-03-06T02:59:25.047Z,2.62
2019-03-06T03:00:25.041Z,2.62
2019-03-06T03:01:25.073Z,2.62
2019-03-06T03:02:25.042Z,2.62
2019-03-06T03:03:25.055Z,2.62
2019-03-06T03:04:25.064Z,2.63
2019-03-06T03:05:25.102Z,2.62
2019-03-06T03:06:25.043Z,2.62
2019-03-06T03:07:25.129Z,2.63
2019-03-06T03:08:25.119Z,2.62
2019-03-06T03:09:25.068Z,2.61
2019-03-06T03:10:25.034Z,2.62
2019-03-06T03:11:25.067Z,2.62
2019-03-06T03:12:25.053Z,2.62
2019-03-06T03:13:24.983Z,2.62
2019-03-06T03:14:25.014Z,2.68
2019-03-06T03:15:24.949Z,2.68
2019-03-06T03:16:25.067Z,2.68
2019-03-06T03:17:25.024Z,2.63
2019-03-06T03:18:25.001Z,2.63
2019-03-06T03:19:24.969Z,2.61
2019-03-06T03:20:25.087Z,2.59
2019-03-06T03:21:27.007Z,2.59
2019-03-06T03:22:25.149Z,2.61
2019-03-06T03:23:25.122Z,2.63
2019-03-06T03:24:25.146Z,2.66
2019-03-06T03:25:25.133Z,2.70
2019-03-06T03:26:25.149Z,2.73
2019-03-06T03:27:25.131Z,2.77
2019-03-06T03:28:25.141Z,2.79
2019-03-06T03:29:25.130Z,2.83
2019-03-06T03:30:25.061Z,2.83
2019-03-06T03:31:25.124Z,2.84
2019-03-06T03:32:25.057Z,2.87
2019-03-06T03:33:25.067Z,2.88
2019-03-06T03:34:25.146Z,2.92
2019-03-06T03:35:25.129Z,2.94
2019-03-06T03:36:25.068Z,2.96
2019-03-06T03:37:25.126Z,2.99
2019-03-06T03:38:25.083Z,3.02
2019-03-06T03:39:25.130Z,3.02
2019-03-06T03:40:25.101Z,3.05
2019-03-06T03:41:25.062Z,3.07
2019-03-06T03:42:25.131Z,3.09
2019-03-06T03:43:25.069Z,3.10
2019-03-06T03:44:25.068Z,3.10
2019-03-06T03:45:25.081Z,3.13
2019-03-06T03:46:25.172Z,3.17
2019-03-06T03:47:25.068Z,3.24
2019-03-06T03:48:25.138Z,3.25
2019-03-06T03:49:27.743Z,3.26
2019-03-06T03:50:25.165Z,3.29
2019-03-06T03:51:25.174Z,3.28
2019-03-06T03:52:25.173Z,3.32
2019-03-06T03:53:25.037Z,3.32
2019-03-06T03:54:25.158Z,3.31
2019-03-06T03:55:25.166Z,3.31
2019-03-06T03:56:25.165Z,3.32
2019-03-06T03:57:25.167Z,3.31
2019-03-06T03:58:25.061Z,3.33
2019-03-06T03:59:25.217Z,3.35
2019-03-06T04:00:25.113Z,3.36
2019-03-06T04:01:25.154Z,3.36
2019-03-06T04:02:25.335Z,3.37
2019-03-06T04:03:25.268Z,3.37
2019-03-06T04:04:25.136Z,3.40
2019-03-06T04:05:25.146Z,3.40
2019-03-06T04:06:25.121Z,3.42
2019-03-06T04:07:25.060Z,3.43
2019-03-06T04:08:25.141Z,3.43
2019-03-06T04:09:25.083Z,3.43
2019-03-06T04:10:25.118Z,3.43
2019-03-06T04:11:25.154Z,3.44
2019-03-06T04:12:25.149Z,3.46
2019-03-06T04:13:25.087Z,3.44
2019-03-06T04:14:25.155Z,3.46
2019-03-06T04:15:25.066Z,3.46
2019-03-06T04:16:25.059Z,3.47
2019-03-06T04:17:25.143Z,3.47
2019-03-06T04:18:25.095Z,3.48
2019-03-06T04:19:25.162Z,3.48
2019-03-06T04:20:25.210Z,3.50
2019-03-06T04:21:25.025Z,3.50
2019-03-06T04:22:25.121Z,3.48
2019-03-06T04:23:25.086Z,3.50
2019-03-06T04:24:25.122Z,3.50
2019-03-06T04:25:25.146Z,3.48
2019-03-06T04:26:25.099Z,3.48
2019-03-06T04:27:25.032Z,3.50
2019-03-06T04:28:27.846Z,3.48
2019-03-06T04:29:25.134Z,3.50
2019-03-06T04:30:25.186Z,3.50
2019-03-06T04:31:25.097Z,3.50
2019-03-06T04:32:25.118Z,3.50
2019-03-06T04:33:25.133Z,3.53
2019-03-06T04:34:25.051Z,3.53
2019-03-06T04:35:25.074Z,3.54
2019-03-06T04:36:25.149Z,3.54
2019-03-06T04:37:25.052Z,3.54
2019-03-06T04:38:25.168Z,3.54
2019-03-06T04:39:25.167Z,3.54
2019-03-06T04:40:25.152Z,3.53
2019-03-06T04:41:25.104Z,3.51
2019-03-06T04:42:25.171Z,3.51
2019-03-06T04:43:25.175Z,3.51
2019-03-06T04:44:25.193Z,3.50
2019-03-06T04:45:25.110Z,3.50
2019-03-06T04:46:25.108Z,3.48
2019-03-06T04:47:25.107Z,3.47
2019-03-06T04:48:25.138Z,3.47
2019-03-06T04:49:25.181Z,3.48
2019-03-06T04:50:25.179Z,3.47
2019-03-06T04:51:25.102Z,3.47
2019-03-06T04:52:25.164Z,3.47
2019-03-06T04:53:25.062Z,3.47
2019-03-06T04:54:25.129Z,3.47
2019-03-06T04:55:25.052Z,3.47
2019-03-06T04:56:25.106Z,3.47
2019-03-06T04:57:25.106Z,3.47
2019-03-06T04:58:26.290Z,3.47
2019-03-06T04:59:25.109Z,3.47
2019-03-06T05:00:25.138Z,3.48
2019-03-06T05:01:25.166Z,3.48
2019-03-06T05:02:25.315Z,3.48
2019-03-06T05:03:25.247Z,3.48
2019-03-06T05:04:25.310Z,3.48
2019-03-06T05:05:25.206Z,3.48
2019-03-06T05:06:25.131Z,3.48
2019-03-06T05:07:25.209Z,3.50
2019-03-06T05:08:25.130Z,3.50
2019-03-06T05:09:25.131Z,3.51
2019-03-06T05:10:25.129Z,3.53
2019-03-06T05:11:25.220Z,3.54
2019-03-06T05:12:25.203Z,3.57
2019-03-06T05:13:25.435Z,3.57
2019-03-06T05:14:25.152Z,3.61
2019-03-06T05:15:25.155Z,3.62
2019-03-06T05:16:25.150Z,3.66
2019-03-06T05:17:25.154Z,3.68
2019-03-06T05:18:25.148Z,3.72
2019-03-06T05:19:25.159Z,3.73
2019-03-06T05:20:25.149Z,3.74
2019-03-06T05:21:25.134Z,3.76
2019-03-06T05:22:25.200Z,3.76
2019-03-06T05:23:25.136Z,3.77
2019-03-06T05:24:25.213Z,3.76
2019-03-06T05:25:25.143Z,3.77
2019-03-06T05:26:25.133Z,3.76
2019-03-06T05:27:25.209Z,3.77
2019-03-06T05:28:25.140Z,3.78
2019-03-06T05:29:25.208Z,3.80
2019-03-06T05:30:25.212Z,3.81
2019-03-06T05:31:25.142Z,3.81
2019-03-06T05:32:25.153Z,3.83
2019-03-06T05:33:25.213Z,3.81
2019-03-06T05:34:25.208Z,3.83
2019-03-06T05:35:25.209Z,3.81
2019-03-06T05:36:25.139Z,3.83
2019-03-06T05:37:25.148Z,3.84
2019-03-06T05:38:25.147Z,3.85
2019-03-06T05:39:25.276Z,3.87
2019-03-06T05:40:25.144Z,3.87
2019-03-06T05:41:25.225Z,3.87
2019-03-06T05:42:25.195Z,3.87
2019-03-06T05:43:25.227Z,3.89
2019-03-06T05:44:25.232Z,3.87
2019-03-06T05:45:25.166Z,3.87
2019-03-06T05:46:25.170Z,3.87
2019-03-06T05:47:25.229Z,3.87
2019-03-06T05:48:25.115Z,3.87
2019-03-06T05:49:25.221Z,3.85
2019-03-06T05:50:25.218Z,3.87
2019-03-06T05:51:25.242Z,3.85
2019-03-06T05:52:25.180Z,3.89
2019-03-06T05:53:25.200Z,3.89
2019-03-06T05:54:25.177Z,3.89
2019-03-06T05:55:25.253Z,3.89
2019-03-06T05:56:25.186Z,3.89
2019-03-06T05:57:25.250Z,3.93
2019-03-06T05:58:25.193Z,3.95
2019-03-06T05:59:25.187Z,3.93
2019-03-06T06:00:25.260Z,3.95
2019-03-06T06:01:25.183Z,3.95
2019-03-06T06:02:25.184Z,3.96
2019-03-06T06:03:25.191Z,3.97
2019-03-06T06:04:25.201Z,3.99
2019-03-06T06:05:25.246Z,3.99
2019-03-06T06:06:25.245Z,3.99
2019-03-06T06:07:25.306Z,3.99
2019-03-06T06:08:25.263Z,4.00
2019-03-06T06:09:25.270Z,4.00
2019-03-06T06:10:25.246Z,4.00
2019-03-06T06:11:25.189Z,4.00
2019-03-06T06:12:25.274Z,4.01
2019-03-06T06:13:25.272Z,4.03
2019-03-06T06:14:25.178Z,4.04
2019-03-06T06:15:25.194Z,4.04
2019-03-06T06:16:25.191Z,4.06
2019-03-06T06:17:25.176Z,4.07
2019-03-06T06:18:25.195Z,4.07
2019-03-06T06:19:25.315Z,4.08
2019-03-06T06:20:25.250Z,4.10
2019-03-06T06:21:25.260Z,4.11
2019-03-06T06:22:25.182Z,4.14
2019-03-06T06:23:25.261Z,4.14
2019-03-06T06:24:25.195Z,4.15
2019-03-06T06:25:25.267Z,4.17
2019-03-06T06:26:25.266Z,4.19
2019-03-06T06:27:25.262Z,4.21
2019-03-06T06:28:25.188Z,4.22
2019-03-06T06:29:25.179Z,4.24
2019-03-06T06:30:25.255Z,4.26
2019-03-06T06:31:25.225Z,4.28
2019-03-06T06:32:25.249Z,4.29
2019-03-06T06:33:25.266Z,4.30
2019-03-06T06:34:25.277Z,4.33
2019-03-06T06:35:26.492Z,4.33
2019-03-06T06:36:25.267Z,4.36
2019-03-06T06:37:25.192Z,4.37
2019-03-06T06:38:25.253Z,4.39
2019-03-06T06:39:25.266Z,4.40
2019-03-06T06:40:25.196Z,4.41
2019-03-06T06:41:25.055Z,4.44
2019-03-06T06:42:25.145Z,4.44
2019-03-06T06:43:25.148Z,4.48
2019-03-06T06:44:25.173Z,4.50
2019-03-06T06:45:25.048Z,4.51
2019-03-06T06:46:25.053Z,4.52
2019-03-06T06:47:25.077Z,4.55
2019-03-06T06:48:25.139Z,4.57
2019-03-06T06:49:25.171Z,4.62
2019-03-06T06:50:25.050Z,4.63
2019-03-06T06:51:25.215Z,4.67
2019-03-06T06:52:25.270Z,4.67
2019-03-06T06:53:25.271Z,4.70
2019-03-06T06:54:25.212Z,4.73
2019-03-06T06:55:25.280Z,4.75
2019-03-06T06:56:25.262Z,4.78
2019-03-06T06:57:25.274Z,4.80
2019-03-06T06:58:31.275Z,4.82
2019-03-06T06:59:25.233Z,4.82
2019-03-06T07:00:25.296Z,4.84
2019-03-06T07:01:25.276Z,4.87
2019-03-06T07:02:25.270Z,4.87
2019-03-06T07:03:25.200Z,4.89
2019-03-06T07:04:25.273Z,4.92
2019-03-06T07:05:25.202Z,4.91
2019-03-06T07:06:25.203Z,4.93
2019-03-06T07:07:25.196Z,4.93
2019-03-06T07:08:25.275Z,4.98
2019-03-06T07:09:25.276Z,4.99
2019-03-06T07:10:25.199Z,5.02
2019-03-06T07:11:25.157Z,5.04
2019-03-06T07:12:25.278Z,5.07
2019-03-06T07:13:25.269Z,5.10
2019-03-06T07:14:25.275Z,5.10
2019-03-06T07:15:25.275Z,5.14
2019-03-06T07:16:25.276Z,5.16
2019-03-06T07:17:25.214Z,5.18
2019-03-06T07:18:25.208Z,5.19
2019-03-06T07:19:25.277Z,5.22
2019-03-06T07:20:25.285Z,5.25
2019-03-06T07:21:25.294Z,5.26
2019-03-06T07:22:25.251Z,5.30
2019-03-06T07:23:25.455Z,5.35
2019-03-06T07:24:25.226Z,5.37
2019-03-06T07:25:25.308Z,5.41
2019-03-06T07:26:25.230Z,5.42
2019-03-06T07:27:25.296Z,5.44
2019-03-06T07:28:25.301Z,5.48
2019-03-06T07:29:25.231Z,5.51
2019-03-06T07:30:25.308Z,5.55
2019-03-06T07:31:25.302Z,5.57
2019-03-06T07:32:25.303Z,5.64
2019-03-06T07:33:25.234Z,5.68
2019-03-06T07:34:25.236Z,5.70
2019-03-06T07:35:25.296Z,5.73
2019-03-06T07:36:25.235Z,5.74
2019-03-06T07:37:28.529Z,5.79
2019-03-06T07:38:25.199Z,5.82
2019-03-06T07:39:25.249Z,5.89
2019-03-06T07:40:25.236Z,5.92
2019-03-06T07:41:25.241Z,5.95
2019-03-06T07:42:25.241Z,5.92
2019-03-06T07:43:25.239Z,5.96
2019-03-06T07:44:30.129Z,5.93
2019-03-06T07:45:25.337Z,5.95
2019-03-06T07:46:25.311Z,5.95
2019-03-06T07:47:25.313Z,5.99
2019-03-06T07:48:25.314Z,5.99
2019-03-06T07:49:25.338Z,6.02
2019-03-06T07:50:25.325Z,6.06
2019-03-06T07:51:25.313Z,6.12
2019-03-06T07:52:25.253Z,6.16
2019-03-06T07:53:25.243Z,6.20
2019-03-06T07:54:25.316Z,6.27
2019-03-06T07:55:25.264Z,6.36
2019-03-06T07:56:25.317Z,6.44
2019-03-06T07:57:25.320Z,6.49
2019-03-06T07:58:25.322Z,6.55
2019-03-06T07:59:25.329Z,6.61
2019-03-06T08:00:25.253Z,6.68
2019-03-06T08:01:25.324Z,6.72
2019-03-06T08:02:25.274Z,6.78
2019-03-06T08:03:25.331Z,6.84
2019-03-06T08:04:25.254Z,6.87
2019-03-06T08:05:25.324Z,6.91
2019-03-06T08:06:25.321Z,6.91
2019-03-06T08:07:25.426Z,6.87
2019-03-06T08:08:25.269Z,6.90
2019-03-06T08:09:25.264Z,6.93
2019-03-06T08:10:25.290Z,6.95
2019-03-06T08:11:25.259Z,6.97
2019-03-06T08:12:25.260Z,7.00
2019-03-06T08:13:25.336Z,7.01
2019-03-06T08:14:25.327Z,6.97
2019-03-06T08:15:25.226Z,7.02
2019-03-06T08:16:25.340Z,7.02
2019-03-06T08:17:25.263Z,7.01
2019-03-06T08:18:25.264Z,7.05
2019-03-06T08:19:25.263Z,7.09
2019-03-06T08:20:25.293Z,7.16
2019-03-06T08:21:25.349Z,7.22
2019-03-06T08:22:25.335Z,7.27
2019-03-06T08:23:25.364Z,7.31
2019-03-06T08:24:25.369Z,7.35
2019-03-06T08:25:25.336Z,7.45
2019-03-06T08:26:25.289Z,7.53
2019-03-06T08:27:25.341Z,7.64
2019-03-06T08:28:25.272Z,7.75
2019-03-06T08:29:25.266Z,7.83
2019-03-06T08:30:25.270Z,7.95
2019-03-06T08:31:25.281Z,8.02
2019-03-06T08:32:25.364Z,8.05
2019-03-06T08:33:25.261Z,8.09
2019-03-06T08:34:25.310Z,8.06
2019-03-06T08:35:25.332Z,8.12
2019-03-06T08:36:25.339Z,8.22
2019-03-06T08:37:25.306Z,8.30
2019-03-06T08:38:25.266Z,8.43
2019-03-06T08:39:25.281Z,8.45
2019-03-06T08:40:25.381Z,8.45
2019-03-06T08:41:25.281Z,8.50
2019-03-06T08:42:25.350Z,8.53
2019-03-06T08:43:25.353Z,8.51
2019-03-06T08:44:25.384Z,8.57
2019-03-06T08:45:25.295Z,8.61
2019-03-06T08:46:25.283Z,8.65
2019-03-06T08:47:25.366Z,8.72
2019-03-06T08:48:25.328Z,8.75
2019-03-06T08:49:25.374Z,8.69
2019-03-06T08:50:25.289Z,8.64
2019-03-06T08:51:25.269Z,8.64
2019-03-06T08:52:25.322Z,8.65
2019-03-06T08:53:25.288Z,8.65
2019-03-06T08:54:25.283Z,8.71
2019-03-06T08:55:25.274Z,8.67
2019-03-06T08:56:25.264Z,8.74
2019-03-06T08:57:25.244Z,8.72
2019-03-06T08:58:25.282Z,8.69
2019-03-06T08:59:25.356Z,8.74
2019-03-06T09:00:25.314Z,8.72
2019-03-06T09:01:25.295Z,8.69
2019-03-06T09:02:25.295Z,8.68
2019-03-06T09:03:25.293Z,8.69
2019-03-06T09:04:25.365Z,8.71
2019-03-06T09:05:25.371Z,8.74
2019-03-06T09:06:25.297Z,8.74
2019-03-06T09:07:25.369Z,8.79
2019-03-06T09:08:25.299Z,8.86
2019-03-06T09:09:25.374Z,8.82
2019-03-06T09:10:25.311Z,8.87
2019-03-06T09:11:25.302Z,8.94
2019-03-06T09:12:25.301Z,8.97
2019-03-06T09:13:25.331Z,9.05
2019-03-06T09:14:25.371Z,9.12
2019-03-06T09:15:25.377Z,9.20
2019-03-06T09:16:25.305Z,9.27
2019-03-06T09:17:26.787Z,9.31
2019-03-06T09:18:25.385Z,9.25
2019-03-06T09:19:25.376Z,9.20
2019-03-06T09:20:34.983Z,9.25
2019-03-06T09:21:25.329Z,9.23
2019-03-06T09:22:25.368Z,9.22
2019-03-06T09:23:25.370Z,9.28
2019-03-06T09:24:25.324Z,9.36
2019-03-06T09:25:25.375Z,9.40
2019-03-06T09:26:25.367Z,9.38
2019-03-06T09:27:25.375Z,9.40
2019-03-06T09:28:25.373Z,9.40
2019-03-06T09:29:25.387Z,9.34
2019-03-06T09:30:25.378Z,9.36
2019-03-06T09:31:25.316Z,9.38
2019-03-06T09:32:25.314Z,9.38
2019-03-06T09:33:25.383Z,9.31
2019-03-06T09:34:25.383Z,9.30
2019-03-06T09:35:25.387Z,9.38
2019-03-06T09:36:25.331Z,9.39
2019-03-06T09:37:25.326Z,9.44
2019-03-06T09:38:25.405Z,9.46
2019-03-06T09:39:25.389Z,9.47
2019-03-06T09:40:25.333Z,9.44
2019-03-06T09:41:25.353Z,9.44
2019-03-06T09:42:25.324Z,9.42
2019-03-06T09:43:25.402Z,9.47
2019-03-06T09:44:25.391Z,9.51
2019-03-06T09:45:25.400Z,9.54
2019-03-06T09:46:25.337Z,9.55
2019-03-06T09:47:25.389Z,9.58
2019-03-06T09:48:25.290Z,9.66
2019-03-06T09:49:25.408Z,9.75
2019-03-06T09:50:25.324Z,9.80
2019-03-06T09:51:25.273Z,9.87
2019-03-06T09:52:25.356Z,9.98
2019-03-06T09:53:25.610Z,10.11
2019-03-06T09:54:25.306Z,10.16
2019-03-06T09:55:25.392Z,10.18
2019-03-06T09:56:25.344Z,10.14
2019-03-06T09:57:25.305Z,10.13
2019-03-06T09:58:25.322Z,10.09
2019-03-06T09:59:25.303Z,10.08
2019-03-06T10:00:25.321Z,10.05
2019-03-06T10:01:25.387Z,9.98
2019-03-06T10:02:25.381Z,10.02
2019-03-06T10:03:25.302Z,10.13
2019-03-06T10:04:25.390Z,10.27
2019-03-06T10:05:25.327Z,10.30
2019-03-06T10:06:25.310Z,10.36
2019-03-06T10:07:25.276Z,10.36
2019-03-06T10:08:25.354Z,10.43
2019-03-06T10:09:25.275Z,10.49
2019-03-06T10:10:25.316Z,10.52
2019-03-06T10:11:25.417Z,10.60
2019-03-06T10:12:25.354Z,10.68
2019-03-06T10:13:25.342Z,10.53
2019-03-06T10:14:25.368Z,10.46
2019-03-06T10:15:25.345Z,10.50
2019-03-06T10:16:25.427Z,10.53
2019-03-06T10:17:25.358Z,10.61
2019-03-06T10:18:26.816Z,10.61
2019-03-06T10:19:25.414Z,10.69
2019-03-06T10:20:25.613Z,10.75
2019-03-06T10:21:25.766Z,10.75
2019-03-06T10:22:25.308Z,10.83
2019-03-06T10:23:25.267Z,10.84
2019-03-06T10:24:25.361Z,10.83
2019-03-06T10:25:29.963Z,10.88
2019-03-06T10:26:25.317Z,10.86
2019-03-06T10:27:25.341Z,10.86
2019-03-06T10:28:27.981Z,10.79
2019-03-06T10:29:25.387Z,10.80
2019-03-06T10:30:25.302Z,10.86
2019-03-06T10:31:25.358Z,10.95
2019-03-06T10:32:25.343Z,11.03
2019-03-06T10:33:25.371Z,11.06
2019-03-06T10:34:25.354Z,11.02
2019-03-06T10:35:25.368Z,11.06
2019-03-06T10:36:25.292Z,10.98
2019-03-06T10:37:25.287Z,10.95
2019-03-06T10:38:25.309Z,11.02
2019-03-06T10:39:25.288Z,11.14
2019-03-06T10:40:25.332Z,11.21
2019-03-06T10:41:25.407Z,11.31
2019-03-06T10:42:25.333Z,11.42
2019-03-06T10:43:25.428Z,11.51
2019-03-06T10:44:29.438Z,11.61
2019-03-06T10:45:25.356Z,11.78
2019-03-06T10:46:25.343Z,11.79
2019-03-06T10:47:25.425Z,11.92
2019-03-06T10:48:25.361Z,11.98
2019-03-06T10:49:25.434Z,11.86
2019-03-06T10:51:25.313Z,11.97
2019-03-06T10:52:25.430Z,11.89
2019-03-06T10:53:25.360Z,11.82
2019-03-06T10:54:25.437Z,11.86
2019-03-06T10:55:25.428Z,11.92
2019-03-06T10:56:25.448Z,11.99
2019-03-06T10:57:25.436Z,12.02
2019-03-06T10:58:25.361Z,12.03
2019-03-06T10:59:25.367Z,12.21
2019-03-06T11:00:25.328Z,12.26
2019-03-06T11:01:25.410Z,12.22
2019-03-06T11:02:25.434Z,12.28
2019-03-06T11:03:25.445Z,12.32
2019-03-06T11:04:25.366Z,12.42
2019-03-06T11:05:25.369Z,12.35
2019-03-06T11:06:25.372Z,12.35
2019-03-06T11:07:25.392Z,12.32
2019-03-06T11:08:25.372Z,12.25
2019-03-06T11:09:25.379Z,12.32
2019-03-06T11:10:25.680Z,12.39
2019-03-06T11:11:25.456Z,12.44
2019-03-06T11:12:25.448Z,12.47
2019-03-06T11:13:25.358Z,12.48
2019-03-06T11:14:25.345Z,12.39
2019-03-06T11:15:25.449Z,12.37
2019-03-06T11:16:25.382Z,12.31
2019-03-06T11:17:25.333Z,12.20
2019-03-06T11:18:25.375Z,12.18
2019-03-06T11:19:25.454Z,12.20
2019-03-06T11:20:25.418Z,12.22
2019-03-06T11:21:25.393Z,12.10
2019-03-06T11:22:25.464Z,12.06
2019-03-06T11:23:25.388Z,12.08
2019-03-06T11:24:25.463Z,12.13
2019-03-06T11:25:25.463Z,12.05
2019-03-06T11:26:25.460Z,12.03
2019-03-06T11:27:25.473Z,12.03
2019-03-06T11:28:25.464Z,12.06
2019-03-06T11:29:25.486Z,12.09
2019-03-06T11:30:25.467Z,12.16
2019-03-06T11:31:25.470Z,12.25
2019-03-06T11:32:25.473Z,12.33
2019-03-06T11:33:25.400Z,12.42
2019-03-06T11:34:25.467Z,12.50
2019-03-06T11:35:25.477Z,12.51
2019-03-06T11:36:25.405Z,12.46
2019-03-06T11:37:25.405Z,12.40
2019-03-06T11:38:25.473Z,12.37
2019-03-06T11:39:25.422Z,12.46
2019-03-06T11:40:25.475Z,12.57
2019-03-06T11:41:25.413Z,12.79
2019-03-06T11:42:25.469Z,12.89
2019-03-06T11:43:25.409Z,12.95
2019-03-06T11:44:25.426Z,13.16
2019-03-06T11:45:25.481Z,13.34
2019-03-06T11:46:25.478Z,13.17
2019-03-06T11:47:25.463Z,13.17
2019-03-06T11:48:25.481Z,13.25
2019-03-06T11:49:25.484Z,13.29
2019-03-06T11:50:25.416Z,13.40
2019-03-06T11:51:25.416Z,13.45
2019-03-06T11:52:25.384Z,13.56
2019-03-06T11:53:25.290Z,13.62
2019-03-06T11:54:25.378Z,13.76
2019-03-06T11:55:25.336Z,13.73
2019-03-06T11:56:25.407Z,13.69
2019-03-06T11:57:25.415Z,13.56
2019-03-06T11:58:25.409Z,13.49
2019-03-06T11:59:25.413Z,13.34
2019-03-06T12:00:25.299Z,13.31
2019-03-06T12:01:25.351Z,13.27
2019-03-06T12:02:25.437Z,13.24
2019-03-06T12:03:25.362Z,13.17
2019-03-06T12:04:25.420Z,13.16
2019-03-06T12:05:25.409Z,13.09
2019-03-06T12:06:25.396Z,13.05
2019-03-06T12:07:25.488Z,13.02
2019-03-06T12:08:25.483Z,12.91
2019-03-06T12:09:25.499Z,12.84
2019-03-06T12:10:25.514Z,12.89
2019-03-06T12:11:25.404Z,12.95
2019-03-06T12:12:25.430Z,12.87
2019-03-06T12:13:25.499Z,12.82
2019-03-06T12:14:25.516Z,12.84
2019-03-06T12:15:25.454Z,12.82
2019-03-06T12:16:25.508Z,12.73
2019-03-06T12:17:25.441Z,12.69
2019-03-06T12:18:25.499Z,12.68
2019-03-06T12:19:25.519Z,12.65
2019-03-06T12:20:25.439Z,12.58
2019-03-06T12:21:25.502Z,12.58
2019-03-06T12:22:25.434Z,12.61
2019-03-06T12:23:25.504Z,12.65
2019-03-06T12:24:25.471Z,12.69
2019-03-06T12:25:25.515Z,12.73
2019-03-06T12:26:25.452Z,12.72
2019-03-06T12:27:25.437Z,12.77
2019-03-06T12:28:25.510Z,12.77
2019-03-06T12:29:25.440Z,12.83
2019-03-06T12:30:25.527Z,12.84
2019-03-06T12:31:25.527Z,12.92
2019-03-06T12:32:27.197Z,12.99
2019-03-06T12:33:25.522Z,13.02
2019-03-06T12:34:25.384Z,13.12
2019-03-06T12:35:25.510Z,13.16
2019-03-06T12:36:25.420Z,13.13
2019-03-06T12:37:25.504Z,13.16
2019-03-06T12:38:25.435Z,13.21
2019-03-06T12:39:25.389Z,13.20
2019-03-06T12:40:25.433Z,13.21
2019-03-06T12:41:25.421Z,13.20
2019-03-06T12:42:25.454Z,13.23
2019-03-06T12:43:25.526Z,13.23
2019-03-06T12:44:25.449Z,13.27
2019-03-06T12:45:27.269Z,13.29
2019-03-06T12:46:25.454Z,13.34
2019-03-06T12:47:25.519Z,13.34
2019-03-06T12:48:25.498Z,13.32
2019-03-06T12:49:25.452Z,13.31
2019-03-06T12:50:25.522Z,13.32
2019-03-06T12:51:25.495Z,13.38
2019-03-06T12:52:25.525Z,13.45
2019-03-06T12:53:25.528Z,13.45
2019-03-06T12:54:25.457Z,13.47
2019-03-06T12:55:25.522Z,13.46
2019-03-06T12:56:25.469Z,13.42
2019-03-06T12:57:25.458Z,13.40
2019-03-06T12:58:25.534Z,13.35
2019-03-06T12:59:25.557Z,13.27
2019-03-06T13:00:25.464Z,13.28
2019-03-06T13:01:25.551Z,13.24
2019-03-06T13:02:25.423Z,13.23
2019-03-06T13:03:25.529Z,13.24
2019-03-06T13:04:25.522Z,13.20
2019-03-06T13:05:25.440Z,13.21
2019-03-06T13:06:25.529Z,13.21
2019-03-06T13:07:25.483Z,13.24
2019-03-06T13:08:25.423Z,13.24
2019-03-06T13:09:25.470Z,13.24
2019-03-06T13:10:25.477Z,13.27
2019-03-06T13:11:25.487Z,13.31
2019-03-06T13:12:25.527Z,13.36
2019-03-06T13:13:35.243Z,13.43